Marquisville, Iowa
Current Conditions -  °F | °C
As of 9:55 AM on Wednesday 28 Jan 2015 (Local Time) from KIKV Reporting Station
Haze Haze  
Wind Chill: 22°   Ceiling: 1200
Heat Index: 32°   Visibility: 6mi
Dew Point: 28°   Wind: 15mph
Humidity: 87%   Direction: 150°SSE
Pressure: 29.94"   Gusts: 21mph
Location:  41.6547°N, 93.6196°W
Report Text: KIKV 281555Z AUTO 15013G18KT 6SM BR BKN012 00/M02 A2994 RMK AO2
Loading
Personal Weather Stations






























Interactive Weather Map New forecast layout! Learn more

10-Day Weather Forecast

Advertisements
Track Severe Weather on mobile